createdAt,value
2023-02-14T00:01:31.528Z,19.30
2023-02-14T00:04:00.926Z,20.60
2023-02-14T00:06:35.020Z,18.80
2023-02-14T00:09:03.396Z,18.40
2023-02-14T00:11:31.894Z,20.90
2023-02-14T00:14:18.362Z,20.30
2023-02-14T00:16:46.252Z,18.00
2023-02-14T00:19:16.270Z,18.60
2023-02-14T00:21:44.808Z,22.40
2023-02-14T00:24:14.962Z,18.90
2023-02-14T00:26:42.826Z,18.90
2023-02-14T00:29:15.170Z,18.00
2023-02-14T00:31:44.925Z,21.50
2023-02-14T00:34:14.474Z,17.60
2023-02-14T00:36:43.108Z,17.20
2023-02-14T00:39:14.563Z,18.60
2023-02-14T00:41:43.096Z,22.80
2023-02-14T00:44:13.305Z,19.10
2023-02-14T00:46:41.672Z,19.40
2023-02-14T00:49:09.871Z,22.70
2023-02-14T00:51:40.721Z,18.40
2023-02-14T00:54:08.536Z,18.70
2023-02-14T00:56:36.226Z,18.80
2023-02-14T00:59:03.945Z,18.70
2023-02-14T01:01:31.799Z,20.00
2023-02-14T01:03:59.556Z,22.00
2023-02-14T01:06:27.385Z,19.60
2023-02-14T01:08:57.680Z,17.70
2023-02-14T01:11:25.827Z,22.20
2023-02-14T01:13:56.765Z,19.90
2023-02-14T01:16:27.019Z,18.10
2023-02-14T01:18:59.797Z,21.70
2023-02-14T01:21:31.710Z,20.90
2023-02-14T01:24:05.702Z,19.30
2023-02-14T01:26:35.014Z,19.90
2023-02-14T01:29:04.508Z,18.50
2023-02-14T01:31:35.126Z,19.80
2023-02-14T01:34:04.112Z,19.30
2023-02-14T01:36:37.115Z,19.00
2023-02-14T01:39:12.920Z,21.00
2023-02-14T01:41:44.071Z,19.20
2023-02-14T01:44:14.949Z,20.80
2023-02-14T01:46:45.036Z,19.50
2023-02-14T01:49:34.932Z,17.80
2023-02-14T01:52:27.327Z,20.30
2023-02-14T01:57:43.242Z,18.50
2023-02-14T02:00:32.618Z,17.20
2023-02-14T02:03:01.869Z,19.10
2023-02-14T02:05:29.882Z,18.70
2023-02-14T02:08:00.133Z,19.20
2023-02-14T02:10:29.385Z,18.00
2023-02-14T02:13:03.121Z,18.70
2023-02-14T02:15:39.468Z,17.20
2023-02-14T02:18:30.798Z,16.80
2023-02-14T02:21:43.344Z,17.90
2023-02-14T02:24:25.879Z,19.40
2023-02-14T02:27:03.719Z,19.40
2023-02-14T02:30:15.044Z,17.10
2023-02-14T02:33:33.167Z,24.70
2023-02-14T02:36:25.322Z,18.80
2023-02-14T02:39:41.349Z,21.10
2023-02-14T02:42:28.448Z,20.10
2023-02-14T02:45:32.436Z,18.50
2023-02-14T02:48:32.216Z,18.00
2023-02-14T02:51:25.247Z,20.80
2023-02-14T02:54:20.185Z,19.70
2023-02-14T02:56:58.185Z,19.00
2023-02-14T02:59:34.260Z,18.80
2023-02-14T03:03:05.066Z,22.60
2023-02-14T03:05:34.457Z,20.20
2023-02-14T03:08:04.669Z,23.20
2023-02-14T03:10:38.761Z,20.70
2023-02-14T03:13:33.648Z,20.30
2023-02-14T03:16:26.683Z,21.50
2023-02-14T03:19:35.441Z,20.10
2023-02-14T03:22:15.608Z,21.20
2023-02-14T03:25:10.908Z,19.70
2023-02-14T03:27:48.380Z,20.40
2023-02-14T03:31:10.029Z,21.40
2023-02-14T03:33:52.628Z,19.90
2023-02-14T03:36:41.910Z,19.90
2023-02-14T03:39:26.697Z,20.60
2023-02-14T03:42:09.285Z,19.40
2023-02-14T03:44:40.147Z,19.10
2023-02-14T03:47:16.930Z,19.80
2023-02-14T03:49:53.121Z,20.60
2023-02-14T03:52:22.428Z,20.50
2023-02-14T03:54:54.449Z,19.70
2023-02-14T04:00:35.397Z,18.50
2023-02-14T04:03:13.095Z,23.40
2023-02-14T04:05:43.328Z,23.40
2023-02-14T04:08:11.857Z,22.00
2023-02-14T04:10:41.349Z,20.40
2023-02-14T04:13:09.258Z,19.90
2023-02-14T04:15:37.047Z,20.50
2023-02-14T04:18:23.498Z,21.40
2023-02-14T04:20:51.267Z,19.70
2023-02-14T04:23:19.019Z,19.00
2023-02-14T04:25:47.386Z,20.50
2023-02-14T04:28:15.248Z,20.90
2023-02-14T04:30:43.218Z,20.40
2023-02-14T04:33:10.933Z,21.00
2023-02-14T04:35:38.716Z,20.50
2023-02-14T04:38:06.585Z,19.70
2023-02-14T04:40:34.297Z,21.70
2023-02-14T04:43:03.926Z,19.00
2023-02-14T04:45:31.717Z,19.80
2023-02-14T04:47:59.869Z,18.60
2023-02-14T04:50:27.576Z,20.50
2023-02-14T04:52:55.454Z,19.40
2023-02-14T04:55:23.456Z,19.70
2023-02-14T04:57:51.221Z,18.30
2023-02-14T05:00:19.558Z,23.20
2023-02-14T05:02:47.280Z,21.20
2023-02-14T05:05:15.166Z,17.80
2023-02-14T05:07:47.052Z,18.00
2023-02-14T05:10:14.949Z,17.70
2023-02-14T05:12:42.814Z,21.40
2023-02-14T05:15:10.658Z,20.20
2023-02-14T05:17:38.496Z,18.80
2023-02-14T05:20:09.426Z,18.90
2023-02-14T05:22:37.077Z,21.50
2023-02-14T05:25:05.374Z,19.60
2023-02-14T05:27:33.228Z,20.50
2023-02-14T05:30:01.013Z,26.50
2023-02-14T05:32:28.775Z,19.60
2023-02-14T05:34:56.469Z,26.00
2023-02-14T05:37:24.205Z,18.00
2023-02-14T05:39:51.902Z,17.70
2023-02-14T05:42:19.811Z,19.60
2023-02-14T05:44:48.267Z,21.70
2023-02-14T05:47:16.008Z,21.80
2023-02-14T05:49:43.685Z,22.00
2023-02-14T05:52:11.434Z,22.60
2023-02-14T05:54:39.047Z,24.30
2023-02-14T05:57:06.981Z,23.80
2023-02-14T05:59:34.712Z,30.00
2023-02-14T06:02:02.629Z,37.70
2023-02-14T06:04:30.546Z,40.00
2023-02-14T06:06:58.577Z,33.90
2023-02-14T06:09:26.667Z,31.10
2023-02-14T06:11:55.322Z,30.40
2023-02-14T06:14:23.316Z,25.10
2023-02-14T06:16:51.463Z,25.50
2023-02-14T06:19:19.128Z,24.30
2023-02-14T06:21:47.176Z,23.50
2023-02-14T06:24:14.814Z,21.70
2023-02-14T06:26:42.528Z,23.60
2023-02-14T06:29:10.708Z,22.80
2023-02-14T06:31:38.508Z,23.70
2023-02-14T06:34:06.622Z,22.70
2023-02-14T06:36:34.892Z,20.90
2023-02-14T06:39:03.835Z,24.70
2023-02-14T06:41:31.670Z,23.20
2023-02-14T06:43:59.671Z,23.70
2023-02-14T06:46:27.536Z,25.90
2023-02-14T06:48:55.277Z,22.00
2023-02-14T06:51:23.205Z,24.90
2023-02-14T06:53:51.025Z,24.70
2023-02-14T06:56:18.790Z,28.80
2023-02-14T06:58:46.692Z,38.50
2023-02-14T07:01:14.655Z,38.30
2023-02-14T07:03:42.645Z,40.90
2023-02-14T07:06:10.395Z,32.60
2023-02-14T07:08:38.073Z,25.90
2023-02-14T07:11:05.746Z,27.50
2023-02-14T07:13:33.497Z,25.30
2023-02-14T07:16:01.216Z,23.00
2023-02-14T07:18:28.928Z,30.70
2023-02-14T07:20:56.724Z,32.70
2023-02-14T07:23:24.442Z,26.90
2023-02-14T07:25:52.124Z,23.80
2023-02-14T07:28:19.835Z,23.90
2023-02-14T07:30:48.151Z,20.70
2023-02-14T07:33:16.326Z,24.40
2023-02-14T07:35:44.184Z,22.60
2023-02-14T07:38:11.837Z,22.00
2023-02-14T07:40:40.409Z,22.40
2023-02-14T07:43:08.224Z,24.00
2023-02-14T07:45:35.968Z,22.20
2023-02-14T07:48:04.126Z,23.90
2023-02-14T07:50:31.827Z,22.30
2023-02-14T07:52:59.423Z,19.00
2023-02-14T07:55:27.260Z,20.20
2023-02-14T07:57:54.939Z,19.90
2023-02-14T08:00:22.984Z,22.10
2023-02-14T08:02:50.733Z,21.20
2023-02-14T08:05:18.928Z,20.00
2023-02-14T08:07:46.781Z,22.60
2023-02-14T08:10:14.646Z,23.00
2023-02-14T08:13:00.856Z,27.00
2023-02-14T08:15:56.188Z,23.30
2023-02-14T08:18:23.993Z,24.30
2023-02-14T08:20:51.679Z,21.30
2023-02-14T08:23:21.026Z,21.90
2023-02-14T08:25:50.966Z,17.60
2023-02-14T08:28:21.126Z,21.90
2023-02-14T08:30:49.609Z,22.70
2023-02-14T08:33:18.104Z,18.40
2023-02-14T08:35:45.979Z,21.20
2023-02-14T08:38:13.920Z,20.70
2023-02-14T08:40:42.290Z,18.10
2023-02-14T08:43:10.822Z,20.50
2023-02-14T08:45:40.080Z,23.80
2023-02-14T08:48:11.341Z,15.40
2023-02-14T08:50:40.208Z,16.40
2023-02-14T08:53:10.775Z,16.10
2023-02-14T08:55:39.909Z,20.10
2023-02-14T08:58:07.685Z,15.80
2023-02-14T09:00:35.597Z,16.90
2023-02-14T09:03:03.829Z,13.80
2023-02-14T09:05:33.418Z,17.30
2023-02-14T09:08:02.799Z,14.20
2023-02-14T09:10:30.941Z,15.50
2023-02-14T09:12:58.646Z,16.10
2023-02-14T09:15:26.377Z,17.40
2023-02-14T09:17:54.098Z,18.20
2023-02-14T09:20:22.054Z,15.90
2023-02-14T09:22:50.078Z,11.30
2023-02-14T09:25:17.769Z,14.80
2023-02-14T09:27:45.504Z,13.70
2023-02-14T09:30:14.479Z,12.10
2023-02-14T09:32:42.284Z,29.00
2023-02-14T09:35:28.693Z,18.20
2023-02-14T09:38:15.363Z,18.70
2023-02-14T09:40:43.872Z,14.90
2023-02-14T09:43:33.367Z,18.70
2023-02-14T09:46:02.857Z,16.50
2023-02-14T09:48:43.152Z,11.80
2023-02-14T09:51:22.785Z,11.40
2023-02-14T09:54:13.705Z,9.70
2023-02-14T09:57:06.573Z,12.30
2023-02-14T10:00:25.697Z,8.90
2023-02-14T10:03:07.839Z,11.10
2023-02-14T10:08:31.152Z,13.00
2023-02-14T10:11:10.284Z,12.00
2023-02-14T10:13:48.544Z,12.50
2023-02-14T10:16:33.087Z,15.50
2023-02-14T10:19:39.593Z,14.80
2023-02-14T10:22:20.925Z,15.30
2023-02-14T10:25:08.441Z,14.50
2023-02-14T10:27:41.648Z,11.20
2023-02-14T10:30:20.985Z,21.00
2023-02-14T10:33:27.991Z,15.20
2023-02-14T10:36:04.742Z,10.90
2023-02-14T10:38:47.272Z,18.90
2023-02-14T10:41:39.495Z,10.90
2023-02-14T10:44:51.983Z,13.30
2023-02-14T10:47:26.182Z,11.20
2023-02-14T10:50:20.879Z,15.60
2023-02-14T10:53:03.354Z,19.70
2023-02-14T10:55:56.353Z,12.70
2023-02-14T10:58:34.165Z,13.30
2023-02-14T11:01:12.887Z,18.70
2023-02-14T11:04:03.101Z,11.60
2023-02-14T11:06:30.946Z,10.20
2023-02-14T11:08:58.993Z,10.60
2023-02-14T11:11:31.432Z,9.60
2023-02-14T11:13:59.181Z,10.30
2023-02-14T11:16:33.395Z,13.10
2023-02-14T11:19:37.230Z,12.30
2023-02-14T11:22:05.865Z,14.60
2023-02-14T11:24:41.741Z,19.10
2023-02-14T11:32:54.560Z,9.90
2023-02-14T11:35:33.639Z,10.70
2023-02-14T11:38:05.778Z,10.60
2023-02-14T11:40:38.374Z,13.00
2023-02-14T11:43:37.473Z,15.20
2023-02-14T11:46:24.305Z,17.70
2023-02-14T11:49:06.164Z,14.80
2023-02-14T11:51:44.697Z,11.10
2023-02-14T11:54:31.645Z,13.60
2023-02-14T11:57:27.153Z,9.20
2023-02-14T11:59:57.650Z,9.70
2023-02-14T12:02:44.342Z,11.10
2023-02-14T12:05:21.176Z,13.50
2023-02-14T12:08:07.782Z,15.40
2023-02-14T12:10:38.077Z,10.20
2023-02-14T12:13:08.910Z,11.60
2023-02-14T12:15:52.021Z,14.20
2023-02-14T12:18:40.539Z,14.90
2023-02-14T12:21:47.723Z,11.70
2023-02-14T12:25:07.035Z,18.30
2023-02-14T12:27:49.938Z,10.30
2023-02-14T12:30:24.865Z,9.70
2023-02-14T12:32:56.778Z,15.80
2023-02-14T12:35:46.778Z,10.80
2023-02-14T12:38:32.605Z,12.00
2023-02-14T12:42:02.316Z,15.30
2023-02-14T12:45:05.939Z,11.60
2023-02-14T12:47:47.297Z,12.50
2023-02-14T12:51:02.993Z,13.00
2023-02-14T12:54:04.816Z,12.80
2023-02-14T12:57:10.315Z,15.60
2023-02-14T13:00:09.245Z,13.80
2023-02-14T13:02:55.336Z,18.60
2023-02-14T13:06:10.977Z,21.60
2023-02-14T13:09:00.763Z,16.10
2023-02-14T13:11:50.053Z,15.00
2023-02-14T13:14:30.245Z,14.50
2023-02-14T13:17:36.718Z,15.40
2023-02-14T13:20:19.267Z,11.10
2023-02-14T13:22:48.722Z,14.30
2023-02-14T13:25:34.309Z,14.30
2023-02-14T13:28:12.377Z,22.90
2023-02-14T13:30:42.517Z,12.10
2023-02-14T13:33:34.927Z,15.30
2023-02-14T13:36:10.406Z,11.40
2023-02-14T13:38:52.726Z,13.10
2023-02-14T13:43:59.589Z,16.80
2023-02-14T13:46:33.650Z,10.10
2023-02-14T13:49:29.086Z,13.10
2023-02-14T13:52:05.775Z,14.80
2023-02-14T13:54:49.616Z,11.70
2023-02-14T13:57:40.618Z,13.90
2023-02-14T14:00:17.287Z,16.50
2023-02-14T14:02:46.538Z,11.60
2023-02-14T14:05:30.217Z,17.10
2023-02-14T14:08:19.884Z,11.00
2023-02-14T14:10:54.785Z,14.70
2023-02-14T14:13:41.601Z,12.30
2023-02-14T14:16:30.215Z,11.70
2023-02-14T14:19:16.656Z,14.90
2023-02-14T14:22:01.350Z,19.70
2023-02-14T14:24:32.320Z,16.30
2023-02-14T14:27:21.150Z,17.10
2023-02-14T14:29:55.860Z,19.30
2023-02-14T14:32:37.191Z,24.30
2023-02-14T14:35:10.534Z,25.10
2023-02-14T14:37:54.360Z,30.50
2023-02-14T14:40:31.448Z,29.10
2023-02-14T14:43:34.436Z,24.90
2023-02-14T14:46:04.302Z,23.60
2023-02-14T14:48:39.608Z,26.90
2023-02-14T14:51:16.552Z,25.50
2023-02-14T14:53:59.886Z,26.40
2023-02-14T14:56:46.465Z,21.40
2023-02-14T14:59:34.786Z,24.70
2023-02-14T15:02:21.063Z,24.60
2023-02-14T15:04:49.141Z,24.00
2023-02-14T15:07:33.332Z,31.30
2023-02-14T15:10:01.485Z,23.70
2023-02-14T15:12:48.365Z,20.20
2023-02-14T15:15:18.468Z,19.60
2023-02-14T15:20:23.104Z,15.50
2023-02-14T15:22:53.057Z,17.20
2023-02-14T15:25:35.374Z,22.60
2023-02-14T15:28:03.364Z,19.40
2023-02-14T15:30:37.341Z,23.50
2023-02-14T15:33:07.177Z,22.20
2023-02-14T15:35:41.578Z,19.40
2023-02-14T15:38:11.873Z,18.10
2023-02-14T15:40:44.457Z,17.40
2023-02-14T15:43:31.920Z,19.30
2023-02-14T15:46:24.410Z,20.20
2023-02-14T15:51:31.127Z,23.60
2023-02-14T15:53:59.989Z,21.00
2023-02-14T15:56:45.420Z,22.60
2023-02-14T15:59:25.591Z,25.10
2023-02-14T16:02:00.445Z,27.70
2023-02-14T16:04:34.309Z,21.30
2023-02-14T16:07:15.935Z,17.30
2023-02-14T16:09:44.006Z,20.10
2023-02-14T16:12:32.457Z,21.30
2023-02-14T16:15:23.984Z,32.10
2023-02-14T16:17:52.189Z,28.20
2023-02-14T16:20:48.668Z,28.80
2023-02-14T16:23:23.990Z,27.80
2023-02-14T16:25:53.030Z,22.80
2023-02-14T16:28:20.975Z,30.20
2023-02-14T16:30:58.335Z,29.10
2023-02-14T16:33:31.877Z,27.70
2023-02-14T16:36:25.681Z,33.60
2023-02-14T16:38:55.014Z,29.50
2023-02-14T16:41:26.692Z,31.30
2023-02-14T16:43:55.870Z,33.80
2023-02-14T16:46:35.549Z,35.40
2023-02-14T16:49:03.775Z,39.30
2023-02-14T16:51:35.449Z,35.20
2023-02-14T16:54:10.967Z,30.80
2023-02-14T16:57:04.398Z,33.70
2023-02-14T16:59:32.125Z,33.70
2023-02-14T17:02:00.629Z,37.90
2023-02-14T17:04:28.729Z,34.20
2023-02-14T17:06:57.560Z,33.10
2023-02-14T17:09:32.259Z,33.70
2023-02-14T17:12:11.546Z,33.00
2023-02-14T17:14:42.595Z,37.10
2023-02-14T17:17:11.591Z,39.70
2023-02-14T17:19:39.568Z,36.80
2023-02-14T17:22:08.102Z,32.70
2023-02-14T17:24:35.912Z,32.50
2023-02-14T17:27:04.286Z,41.20
2023-02-14T17:29:33.272Z,39.80
2023-02-14T17:32:01.648Z,39.10
2023-02-14T17:34:33.639Z,39.40
2023-02-14T17:37:02.378Z,35.60
2023-02-14T17:39:30.380Z,54.30
2023-02-14T17:42:00.808Z,39.20
2023-02-14T17:44:35.309Z,40.60
2023-02-14T17:47:04.746Z,41.70
2023-02-14T17:49:33.030Z,37.30
2023-02-14T17:52:04.169Z,42.20
2023-02-14T17:54:37.604Z,45.60
2023-02-14T17:57:05.643Z,41.50
2023-02-14T17:59:34.896Z,42.60
2023-02-14T18:02:03.260Z,38.80
2023-02-14T18:04:34.549Z,42.90
2023-02-14T18:07:04.619Z,43.90
2023-02-14T18:09:32.745Z,41.70
2023-02-14T18:12:01.034Z,42.10
2023-02-14T18:14:30.193Z,46.00
2023-02-14T18:16:58.405Z,52.40
2023-02-14T18:19:26.436Z,52.30
2023-02-14T18:21:54.408Z,53.30
2023-02-14T18:24:24.819Z,58.20
2023-02-14T18:26:53.019Z,69.20
2023-02-14T18:29:22.101Z,74.90
2023-02-14T18:31:50.156Z,81.80
2023-02-14T18:34:23.658Z,67.90
2023-02-14T18:36:52.304Z,65.60
2023-02-14T18:39:20.370Z,67.20
2023-02-14T18:41:48.534Z,69.20
2023-02-14T18:44:20.982Z,73.70
2023-02-14T18:46:50.676Z,75.90
2023-02-14T18:49:18.798Z,76.30
2023-02-14T18:51:48.363Z,81.20
2023-02-14T18:54:16.241Z,85.60
2023-02-14T18:56:44.134Z,77.30
2023-02-14T18:59:12.925Z,82.20
2023-02-14T19:01:45.079Z,77.70
2023-02-14T19:06:44.653Z,74.40
2023-02-14T19:09:18.093Z,70.40
2023-02-14T19:11:46.255Z,72.00
2023-02-14T19:14:14.043Z,63.80
2023-02-14T19:16:50.043Z,68.60
2023-02-14T19:19:18.360Z,73.10
2023-02-14T19:21:46.142Z,68.50
2023-02-14T19:24:16.913Z,73.70
2023-02-14T19:26:45.751Z,84.40
2023-02-14T19:29:17.606Z,77.50
2023-02-14T19:31:49.657Z,75.30
2023-02-14T19:36:51.404Z,79.50
2023-02-14T19:39:24.072Z,68.50
2023-02-14T19:41:52.379Z,71.90
2023-02-14T19:44:20.499Z,73.20
2023-02-14T19:46:48.630Z,74.60
2023-02-14T19:49:20.048Z,82.20
2023-02-14T19:51:50.689Z,79.60
2023-02-14T19:54:18.661Z,84.30
2023-02-14T19:56:50.441Z,100.80
2023-02-14T19:59:21.118Z,77.00
2023-02-14T20:01:53.628Z,76.90
2023-02-14T20:04:26.074Z,69.70
2023-02-14T20:06:55.692Z,77.40
2023-02-14T20:09:25.284Z,81.00
2023-02-14T20:11:56.708Z,71.20
2023-02-14T20:14:28.830Z,93.70
2023-02-14T20:16:59.510Z,76.70
2023-02-14T20:19:37.684Z,76.10
2023-02-14T20:22:07.551Z,85.40
2023-02-14T20:24:35.506Z,83.60
2023-02-14T20:27:03.501Z,83.80
2023-02-14T20:29:31.766Z,109.30
2023-02-14T20:32:03.215Z,103.80
2023-02-14T20:34:31.131Z,102.50
2023-02-14T20:36:59.789Z,117.10
2023-02-14T20:39:31.883Z,108.40
2023-02-14T20:42:00.580Z,96.40
2023-02-14T20:44:28.871Z,103.90
2023-02-14T20:46:57.988Z,98.20
2023-02-14T20:49:29.296Z,101.90
2023-02-14T20:51:57.944Z,106.00
2023-02-14T20:54:28.103Z,146.50
2023-02-14T20:56:57.363Z,182.20
2023-02-14T20:59:28.115Z,151.30
2023-02-14T21:01:58.380Z,130.00
2023-02-14T21:04:27.612Z,116.60
2023-02-14T21:06:57.192Z,115.10
2023-02-14T21:09:25.430Z,112.00
2023-02-14T21:11:53.796Z,109.40
2023-02-14T21:14:21.699Z,123.10
2023-02-14T21:16:49.663Z,118.20
2023-02-14T21:19:17.494Z,121.40
2023-02-14T21:21:47.408Z,133.20
2023-02-14T21:24:16.242Z,130.70
2023-02-14T21:26:44.586Z,125.80
2023-02-14T21:29:12.374Z,139.80
2023-02-14T21:31:41.754Z,158.80
2023-02-14T21:34:10.248Z,137.80
2023-02-14T21:36:38.037Z,135.20
2023-02-14T21:39:07.401Z,208.00
2023-02-14T21:41:36.800Z,187.70
2023-02-14T21:44:06.364Z,174.10
2023-02-14T21:46:40.490Z,205.50
2023-02-14T21:49:30.697Z,207.90
2023-02-14T21:51:58.745Z,182.40
2023-02-14T21:54:26.710Z,218.60
2023-02-14T21:56:54.440Z,278.70
2023-02-14T21:59:22.229Z,306.90
2023-02-14T22:01:49.977Z,308.80
2023-02-14T22:04:17.805Z,293.20
2023-02-14T22:06:46.034Z,289.30
2023-02-14T22:09:14.194Z,271.80
2023-02-14T22:11:42.462Z,265.10
2023-02-14T22:14:10.335Z,275.00
2023-02-14T22:16:38.366Z,294.20
2023-02-14T22:19:07.696Z,301.00
2023-02-14T22:21:35.664Z,283.90
2023-02-14T22:24:03.916Z,267.30
2023-02-14T22:26:38.102Z,271.20
2023-02-14T22:29:08.721Z,268.60
2023-02-14T22:31:43.806Z,279.40
2023-02-14T22:34:17.295Z,278.60
2023-02-14T22:36:46.223Z,278.40
2023-02-14T22:39:16.171Z,278.70
2023-02-14T22:41:44.144Z,295.00
2023-02-14T22:44:12.868Z,289.10
2023-02-14T22:46:41.446Z,287.40
2023-02-14T22:49:09.160Z,281.60
2023-02-14T22:51:40.371Z,294.30
2023-02-14T22:54:13.620Z,289.30
2023-02-14T22:56:47.810Z,291.40
2023-02-14T22:59:24.861Z,277.50
2023-02-14T23:01:53.997Z,276.20
2023-02-14T23:04:24.450Z,265.70
2023-02-14T23:06:53.417Z,248.00
2023-02-14T23:09:23.424Z,234.20
2023-02-14T23:11:51.515Z,222.20
2023-02-14T23:14:44.086Z,211.70
2023-02-14T23:20:09.711Z,193.50
2023-02-14T23:22:40.489Z,201.70
2023-02-14T23:25:11.591Z,193.60
2023-02-14T23:27:43.791Z,196.10
2023-02-14T23:32:43.665Z,185.20
2023-02-14T23:35:11.563Z,176.80
2023-02-14T23:37:39.407Z,169.20
2023-02-14T23:40:09.237Z,175.80
2023-02-14T23:42:36.955Z,176.70
2023-02-14T23:45:24.269Z,164.30
2023-02-14T23:47:52.047Z,159.60
2023-02-14T23:50:19.824Z,160.80
2023-02-14T23:52:47.582Z,160.60
2023-02-14T23:55:15.475Z,166.40
2023-02-14T23:57:43.285Z,174.80
